sensor_id;sensor_type;location;lat;lon;timestamp;pressure;altitude;pressure_sealevel;temperature;humidity
65557;BME280;52200;53.490;14.376;2022-11-15T00:02:20;101509.72;;;4.78;100.00
65557;BME280;52200;53.490;14.376;2022-11-15T00:04:46;101515.38;;;4.57;100.00
65557;BME280;52200;53.490;14.376;2022-11-15T00:07:11;101512.94;;;4.63;100.00
65557;BME280;52200;53.490;14.376;2022-11-15T00:09:37;101516.22;;;4.60;100.00
65557;BME280;52200;53.490;14.376;2022-11-15T00:12:02;101516.16;;;4.54;100.00
65557;BME280;52200;53.490;14.376;2022-11-15T00:14:28;101517.34;;;4.86;100.00
65557;BME280;52200;53.490;14.376;2022-11-15T00:16:53;101512.19;;;4.75;100.00
65557;BME280;52200;53.490;14.376;2022-11-15T00:19:19;101514.56;;;4.61;100.00
65557;BME280;52200;53.490;14.376;2022-11-15T00:21:44;101506.28;;;4.71;100.00
65557;BME280;52200;53.490;14.376;2022-11-15T00:24:10;101505.53;;;4.78;100.00
65557;BME280;52200;53.490;14.376;2022-11-15T00:26:35;101504.72;;;4.81;100.00
65557;BME280;52200;53.490;14.376;2022-11-15T00:29:00;101495.50;;;4.81;100.00
65557;BME280;52200;53.490;14.376;2022-11-15T00:31:26;101499.72;;;4.84;100.00
65557;BME280;52200;53.490;14.376;2022-11-15T00:33:51;101497.03;;;4.67;100.00
65557;BME280;52200;53.490;14.376;2022-11-15T00:36:17;101493.69;;;4.71;100.00
65557;BME280;52200;53.490;14.376;2022-11-15T00:38:42;101497.25;;;4.90;100.00
65557;BME280;52200;53.490;14.376;2022-11-15T00:41:08;101502.13;;;4.76;100.00
65557;BME280;52200;53.490;14.376;2022-11-15T00:43:33;101497.97;;;4.78;100.00
65557;BME280;52200;53.490;14.376;2022-11-15T00:46:00;101492.91;;;4.75;100.00
65557;BME280;52200;53.490;14.376;2022-11-15T00:48:25;101484.50;;;4.75;100.00
65557;BME280;52200;53.490;14.376;2022-11-15T00:50:51;101483.75;;;4.83;100.00
65557;BME280;52200;53.490;14.376;2022-11-15T00:53:16;101480.22;;;4.63;100.00
65557;BME280;52200;53.490;14.376;2022-11-15T00:55:42;101484.63;;;4.86;100.00
65557;BME280;52200;53.490;14.376;2022-11-15T00:58:07;101490.47;;;4.81;100.00
65557;BME280;52200;53.490;14.376;2022-11-15T01:00:33;101486.38;;;4.96;100.00
65557;BME280;52200;53.490;14.376;2022-11-15T01:03:00;101482.28;;;5.04;100.00
65557;BME280;52200;53.490;14.376;2022-11-15T01:05:27;101473.00;;;5.02;100.00
65557;BME280;52200;53.490;14.376;2022-11-15T01:07:53;101471.25;;;4.93;100.00
65557;BME280;52200;53.490;14.376;2022-11-15T01:10:19;101468.88;;;5.10;100.00
65557;BME280;52200;53.490;14.376;2022-11-15T01:12:45;101472.19;;;5.04;100.00
65557;BME280;52200;53.490;14.376;2022-11-15T01:15:10;101460.53;;;5.15;100.00
65557;BME280;52200;53.490;14.376;2022-11-15T01:17:36;101468.03;;;5.11;100.00
65557;BME280;52200;53.490;14.376;2022-11-15T01:20:02;101463.03;;;5.12;100.00
65557;BME280;52200;53.490;14.376;2022-11-15T01:22:27;101457.09;;;5.07;100.00
65557;BME280;52200;53.490;14.376;2022-11-15T01:24:53;101454.72;;;5.23;100.00
65557;BME280;52200;53.490;14.376;2022-11-15T01:27:18;101450.53;;;5.25;100.00
65557;BME280;52200;53.490;14.376;2022-11-15T01:29:44;101445.38;;;5.11;100.00
65557;BME280;52200;53.490;14.376;2022-11-15T01:32:09;101435.41;;;5.25;100.00
65557;BME280;52200;53.490;14.376;2022-11-15T01:34:35;101433.69;;;5.18;100.00
65557;BME280;52200;53.490;14.376;2022-11-15T01:37:01;101436.28;;;5.33;100.00
65557;BME280;52200;53.490;14.376;2022-11-15T01:39:26;101423.66;;;5.24;100.00
65557;BME280;52200;53.490;14.376;2022-11-15T01:41:52;101428.66;;;5.18;100.00
65557;BME280;52200;53.490;14.376;2022-11-15T01:46:57;101427.94;;;5.37;100.00
65557;BME280;52200;53.490;14.376;2022-11-15T01:49:27;101422.19;;;5.60;100.00
65557;BME280;52200;53.490;14.376;2022-11-15T01:51:55;101415.44;;;5.56;100.00
65557;BME280;52200;53.490;14.376;2022-11-15T01:54:23;101418.66;;;5.33;100.00
65557;BME280;52200;53.490;14.376;2022-11-15T01:57:07;101408.53;;;5.24;100.00
65557;BME280;52200;53.490;14.376;2022-11-15T01:59:35;101411.84;;;5.18;100.00
65557;BME280;52200;53.490;14.376;2022-11-15T02:02:01;101418.63;;;5.24;100.00
65557;BME280;52200;53.490;14.376;2022-11-15T02:04:37;101405.31;;;5.43;100.00
65557;BME280;52200;53.490;14.376;2022-11-15T02:07:06;101395.13;;;5.28;100.00
65557;BME280;52200;53.490;14.376;2022-11-15T02:09:36;101410.09;;;5.08;100.00
65557;BME280;52200;53.490;14.376;2022-11-15T02:12:02;101393.34;;;5.14;100.00
65557;BME280;52200;53.490;14.376;2022-11-15T02:14:28;101404.38;;;5.27;100.00
65557;BME280;52200;53.490;14.376;2022-11-15T02:17:07;101406.03;;;5.27;100.00
65557;BME280;52200;53.490;14.376;2022-11-15T02:23:11;101405.31;;;5.43;100.00
65557;BME280;52200;53.490;14.376;2022-11-15T02:34:15;101401.88;;;5.33;100.00
65557;BME280;52200;53.490;14.376;2022-11-15T02:39:39;101391.81;;;5.33;100.00
65557;BME280;52200;53.490;14.376;2022-11-15T02:42:14;101390.09;;;5.29;100.00
65557;BME280;52200;53.490;14.376;2022-11-15T02:45:04;101389.28;;;5.33;100.00
65557;BME280;52200;53.490;14.376;2022-11-15T02:47:35;101383.41;;;5.36;100.00
65557;BME280;52200;53.490;14.376;2022-11-15T02:50:06;101374.13;;;5.29;100.00
65557;BME280;52200;53.490;14.376;2022-11-15T02:52:32;101380.09;;;5.43;100.00
65557;BME280;52200;53.490;14.376;2022-11-15T02:54:59;101392.78;;;5.65;100.00
65557;BME280;52200;53.490;14.376;2022-11-15T02:58:00;101381.88;;;5.66;100.00
65557;BME280;52200;53.490;14.376;2022-11-15T03:00:27;101379.31;;;5.54;100.00
65557;BME280;52200;53.490;14.376;2022-11-15T03:05:37;101385.09;;;5.40;100.00
65557;BME280;52200;53.490;14.376;2022-11-15T03:08:31;101376.78;;;5.54;100.00
65557;BME280;52200;53.490;14.376;2022-11-15T03:13:30;101373.38;;;5.42;100.00
65557;BME280;52200;53.490;14.376;2022-11-15T03:16:29;101377.59;;;5.48;100.00
65557;BME280;52200;53.490;14.376;2022-11-15T03:19:23;101375.16;;;5.65;100.00
65557;BME280;52200;53.490;14.376;2022-11-15T03:21:52;101370.88;;;5.48;100.00
65557;BME280;52200;53.490;14.376;2022-11-15T03:24:21;101374.19;;;5.38;100.00
65557;BME280;52200;53.490;14.376;2022-11-15T03:26:52;101370.00;;;5.37;100.00
65557;BME280;52200;53.490;14.376;2022-11-15T03:29:30;101369.16;;;5.41;100.00
65557;BME280;52200;53.490;14.376;2022-11-15T03:32:01;101359.94;;;5.43;100.00
65557;BME280;52200;53.490;14.376;2022-11-15T03:34:33;101368.28;;;5.33;100.00
65557;BME280;52200;53.490;14.376;2022-11-15T03:37:00;101367.41;;;5.28;100.00
65557;BME280;52200;53.490;14.376;2022-11-15T03:39:26;101371.69;;;5.41;100.00
65557;BME280;52200;53.490;14.376;2022-11-15T03:44:36;101364.16;;;5.49;100.00
65557;BME280;52200;53.490;14.376;2022-11-15T03:50:03;101360.75;;;5.36;100.00
65557;BME280;52200;53.490;14.376;2022-11-15T03:52:33;101351.56;;;5.47;100.00
65557;BME280;52200;53.490;14.376;2022-11-15T03:55:01;101359.91;;;5.37;100.00
65557;BME280;52200;53.490;14.376;2022-11-15T03:57:28;101354.91;;;5.48;100.00
65557;BME280;52200;53.490;14.376;2022-11-15T03:59:53;101350.72;;;5.47;100.00
65557;BME280;52200;53.490;14.376;2022-11-15T04:02:19;101356.56;;;5.44;100.00
65557;BME280;52200;53.490;14.376;2022-11-15T04:04:45;101359.94;;;5.45;100.00
65557;BME280;52200;53.490;14.376;2022-11-15T04:07:10;101361.56;;;5.38;100.00
65557;BME280;52200;53.490;14.376;2022-11-15T04:09:36;101351.50;;;5.37;100.00
65557;BME280;52200;53.490;14.376;2022-11-15T04:12:24;101353.22;;;5.42;100.00
65557;BME280;52200;53.490;14.376;2022-11-15T04:15:00;101356.53;;;5.33;100.00
65557;BME280;52200;53.490;14.376;2022-11-15T04:17:32;101360.81;;;5.47;100.00
65557;BME280;52200;53.490;14.376;2022-11-15T04:19:58;101354.06;;;5.49;100.00
65557;BME280;52200;53.490;14.376;2022-11-15T04:22:42;101354.94;;;5.51;100.00
65557;BME280;52200;53.490;14.376;2022-11-15T04:25:26;101362.44;;;5.40;100.00
65557;BME280;52200;53.490;14.376;2022-11-15T04:27:52;101346.47;;;5.33;100.00
65557;BME280;52200;53.490;14.376;2022-11-15T04:30:17;101354.91;;;5.46;100.00
65557;BME280;52200;53.490;14.376;2022-11-15T04:32:43;101345.66;;;5.42;100.00
65557;BME280;52200;53.490;14.376;2022-11-15T04:35:08;101337.19;;;5.26;100.00
65557;BME280;52200;53.490;14.376;2022-11-15T04:37:34;101339.72;;;5.34;100.00
65557;BME280;52200;53.490;14.376;2022-11-15T04:39:59;101341.28;;;5.10;100.00
65557;BME280;52200;53.490;14.376;2022-11-15T04:42:25;101342.16;;;5.17;100.00
65557;BME280;52200;53.490;14.376;2022-11-15T04:44:51;101346.41;;;5.23;100.00
65557;BME280;52200;53.490;14.376;2022-11-15T04:47:16;101349.91;;;5.59;100.00
65557;BME280;52200;53.490;14.376;2022-11-15T04:49:42;101345.72;;;5.56;100.00
65557;BME280;52200;53.490;14.376;2022-11-15T04:52:09;101349.09;;;5.61;100.00
65557;BME280;52200;53.490;14.376;2022-11-15T04:54:34;101344.91;;;5.65;100.00
65557;BME280;52200;53.490;14.376;2022-11-15T04:57:00;101343.13;;;5.45;100.00
65557;BME280;52200;53.490;14.376;2022-11-15T04:59:25;101338.94;;;5.44;100.00
65557;BME280;52200;53.490;14.376;2022-11-15T05:01:51;101342.97;;;5.13;100.00
65557;BME280;52200;53.490;14.376;2022-11-15T05:04:16;101332.88;;;5.10;100.00
65557;BME280;52200;53.490;14.376;2022-11-15T05:06:48;101338.06;;;5.39;100.00
65557;BME280;52200;53.490;14.376;2022-11-15T05:09:14;101338.09;;;5.42;100.00
65557;BME280;52200;53.490;14.376;2022-11-15T05:11:40;101334.00;;;5.64;100.00
65557;BME280;52200;53.490;14.376;2022-11-15T05:14:06;101333.03;;;5.36;100.00
65557;BME280;52200;53.490;14.376;2022-11-15T05:16:32;101326.38;;;5.54;100.00
65557;BME280;52200;53.490;14.376;2022-11-15T05:18:57;101331.41;;;5.47;100.00
65557;BME280;52200;53.490;14.376;2022-11-15T05:21:23;101329.81;;;5.68;100.00
65557;BME280;52200;53.490;14.376;2022-11-15T05:23:48;101335.56;;;5.45;100.00
65557;BME280;52200;53.490;14.376;2022-11-15T05:26:15;101328.78;;;5.29;100.00
65557;BME280;52200;53.490;14.376;2022-11-15T05:28:42;101335.44;;;5.14;100.00
65557;BME280;52200;53.490;14.376;2022-11-15T05:31:11;101333.03;;;5.36;100.00
65557;BME280;52200;53.490;14.376;2022-11-15T05:33:38;101327.06;;;5.23;100.00
65557;BME280;52200;53.490;14.376;2022-11-15T05:36:43;101328.00;;;5.39;100.00
65557;BME280;52200;53.490;14.376;2022-11-15T05:39:09;101334.59;;;5.15;100.00
65557;BME280;52200;53.490;14.376;2022-11-15T05:41:48;101343.84;;;5.16;100.00
65557;BME280;52200;53.490;14.376;2022-11-15T05:44:17;101327.00;;;5.06;100.00
65557;BME280;52200;53.490;14.376;2022-11-15T05:46:43;101325.28;;;5.02;100.00
65557;BME280;52200;53.490;14.376;2022-11-15T05:49:13;101322.69;;;4.90;100.00
65557;BME280;52200;53.490;14.376;2022-11-15T05:51:42;101323.66;;;5.10;100.00
65557;BME280;52200;53.490;14.376;2022-11-15T05:54:09;101332.84;;;4.99;100.00
65557;BME280;52200;53.490;14.376;2022-11-15T05:56:35;101328.53;;;4.89;100.00
65557;BME280;52200;53.490;14.376;2022-11-15T05:59:01;101334.56;;;5.06;100.00
65557;BME280;52200;53.490;14.376;2022-11-15T06:01:27;101338.06;;;5.36;100.00
65557;BME280;52200;53.490;14.376;2022-11-15T06:03:53;101325.41;;;5.24;100.00
65557;BME280;52200;53.490;14.376;2022-11-15T06:06:18;101331.25;;;5.16;100.00
65557;BME280;52200;53.490;14.376;2022-11-15T06:08:44;101324.53;;;5.12;100.00
65557;BME280;52200;53.490;14.376;2022-11-15T06:11:09;101327.00;;;5.11;100.00
65557;BME280;52200;53.490;14.376;2022-11-15T06:13:35;101328.63;;;4.99;100.00
65557;BME280;52200;53.490;14.376;2022-11-15T06:16:01;101332.84;;;4.99;100.00
65557;BME280;52200;53.490;14.376;2022-11-15T06:18:26;101327.84;;;5.08;100.00
65557;BME280;52200;53.490;14.376;2022-11-15T06:20:52;101328.03;;;5.41;100.00
65557;BME280;52200;53.490;14.376;2022-11-15T06:23:18;101326.94;;;4.98;100.00
65557;BME280;52200;53.490;14.376;2022-11-15T06:25:43;101332.84;;;4.99;100.00
65557;BME280;52200;53.490;14.376;2022-11-15T06:28:09;101328.63;;;4.96;100.00
65557;BME280;52200;53.490;14.376;2022-11-15T06:30:34;101336.22;;;5.07;100.00
65557;BME280;52200;53.490;14.376;2022-11-15T06:33:04;101347.19;;;5.12;100.00
65557;BME280;52200;53.490;14.376;2022-11-15T06:35:33;101333.75;;;5.18;100.00
65557;BME280;52200;53.490;14.376;2022-11-15T06:38:07;101339.59;;;5.06;100.00
65557;BME280;52200;53.490;14.376;2022-11-15T06:40:34;101332.84;;;5.00;100.00
65557;BME280;52200;53.490;14.376;2022-11-15T06:43:00;101342.91;;;4.99;100.00
65557;BME280;52200;53.490;14.376;2022-11-15T06:45:26;101334.47;;;4.94;100.00
65557;BME280;52200;53.490;14.376;2022-11-15T06:47:52;101342.81;;;4.87;100.00
65557;BME280;52200;53.490;14.376;2022-11-15T06:50:18;101339.44;;;4.84;100.00
65557;BME280;52200;53.490;14.376;2022-11-15T06:52:44;101335.28;;;4.90;100.00
65557;BME280;52200;53.490;14.376;2022-11-15T06:55:10;101333.69;;;5.06;100.00
65557;BME280;52200;53.490;14.376;2022-11-15T06:57:36;101336.25;;;5.13;100.00
65557;BME280;52200;53.490;14.376;2022-11-15T07:00:03;101339.47;;;4.88;100.00
65557;BME280;52200;53.490;14.376;2022-11-15T07:02:29;101339.44;;;4.84;100.00
65557;BME280;52200;53.490;14.376;2022-11-15T07:04:54;101332.78;;;4.94;100.00
65557;BME280;52200;53.490;14.376;2022-11-15T07:07:20;101344.50;;;4.89;100.00
65557;BME280;52200;53.490;14.376;2022-11-15T07:09:45;101351.28;;;4.98;100.00
65557;BME280;52200;53.490;14.376;2022-11-15T07:12:11;101353.09;;;5.21;100.00
65557;BME280;52200;53.490;14.376;2022-11-15T07:14:36;101351.47;;;5.32;100.00
65557;BME280;52200;53.490;14.376;2022-11-15T07:17:05;101351.44;;;5.23;100.00
65557;BME280;52200;53.490;14.376;2022-11-15T07:19:31;101346.41;;;5.21;100.00
65557;BME280;52200;53.490;14.376;2022-11-15T07:21:56;101356.41;;;5.10;100.00
65557;BME280;52200;53.490;14.376;2022-11-15T07:24:22;101352.22;;;5.14;100.00
65557;BME280;52200;53.490;14.376;2022-11-15T07:26:47;101354.78;;;5.22;100.00
65557;BME280;52200;53.490;14.376;2022-11-15T07:29:13;101366.53;;;5.23;100.00
65557;BME280;52200;53.490;14.376;2022-11-15T07:31:38;101366.56;;;5.27;100.00
65557;BME280;52200;53.490;14.376;2022-11-15T07:34:04;101370.66;;;5.08;100.00
65557;BME280;52200;53.490;14.376;2022-11-15T07:36:29;101379.88;;;5.09;100.00
65557;BME280;52200;53.490;14.376;2022-11-15T07:38:55;101391.69;;;5.16;100.00
65557;BME280;52200;53.490;14.376;2022-11-15T07:41:20;101386.63;;;5.13;100.00
65557;BME280;52200;53.490;14.376;2022-11-15T07:43:46;101393.38;;;5.18;100.00
65557;BME280;52200;53.490;14.376;2022-11-15T07:46:11;101390.97;;;5.38;100.00
65557;BME280;52200;53.490;14.376;2022-11-15T07:48:38;101385.91;;;5.31;100.00
65557;BME280;52200;53.490;14.376;2022-11-15T07:51:05;101391.78;;;5.32;100.00
65557;BME280;52200;53.490;14.376;2022-11-15T07:53:31;101389.38;;;5.55;100.00
65557;BME280;52200;53.490;14.376;2022-11-15T07:55:57;101396.16;;;5.70;100.00
65557;BME280;52200;53.490;14.376;2022-11-15T07:58:22;101395.38;;;5.85;100.00
65557;BME280;52200;53.490;14.376;2022-11-15T08:00:48;101388.69;;;5.95;100.00
65557;BME280;52200;53.490;14.376;2022-11-15T08:03:15;101383.66;;;5.86;100.00
65557;BME280;52200;53.490;14.376;2022-11-15T08:05:42;101381.94;;;5.81;100.00
65557;BME280;52200;53.490;14.376;2022-11-15T08:08:09;101384.41;;;5.68;99.93
65557;BME280;52200;53.490;14.376;2022-11-15T08:10:36;101384.34;;;5.57;100.00
65557;BME280;52200;53.490;14.376;2022-11-15T08:13:09;101373.50;;;5.67;100.00
65557;BME280;52200;53.490;14.376;2022-11-15T08:15:36;101379.38;;;5.71;100.00
65557;BME280;52200;53.490;14.376;2022-11-15T08:18:22;101382.72;;;5.67;100.00
65557;BME280;52200;53.490;14.376;2022-11-15T08:20:47;101374.22;;;5.41;100.00
65557;BME280;52200;53.490;14.376;2022-11-15T08:23:13;101376.69;;;5.35;100.00
65557;BME280;52200;53.490;14.376;2022-11-15T08:25:39;101375.19;;;5.77;100.00
65557;BME280;52200;53.490;14.376;2022-11-15T08:28:07;101381.00;;;5.55;100.00
65557;BME280;52200;53.490;14.376;2022-11-15T08:30:41;101381.88;;;5.66;100.00
65557;BME280;52200;53.490;14.376;2022-11-15T08:33:11;101378.50;;;5.64;100.00
65557;BME280;52200;53.490;14.376;2022-11-15T08:35:37;101386.91;;;5.58;100.00
65557;BME280;52200;53.490;14.376;2022-11-15T08:38:03;101389.38;;;5.54;100.00
65557;BME280;52200;53.490;14.376;2022-11-15T08:40:28;101380.22;;;5.68;100.00
65557;BME280;52200;53.490;14.376;2022-11-15T08:42:54;101382.75;;;5.73;100.00
65557;BME280;52200;53.490;14.376;2022-11-15T08:45:19;101388.59;;;5.61;100.00
65557;BME280;52200;53.490;14.376;2022-11-15T08:47:45;101380.28;;;5.90;99.97
65557;BME280;52200;53.490;14.376;2022-11-15T08:50:10;101376.88;;;5.75;100.00
65557;BME280;52200;53.490;14.376;2022-11-15T08:52:36;101378.63;;;5.98;99.82
65557;BME280;52200;53.490;14.376;2022-11-15T08:55:01;101377.00;;;6.06;99.05
65557;BME280;52200;53.490;14.376;2022-11-15T08:57:29;101373.66;;;6.04;98.57
65557;BME280;52200;53.490;14.376;2022-11-15T08:59:55;101371.13;;;6.04;98.57
65557;BME280;52200;53.490;14.376;2022-11-15T09:02:21;101360.22;;;6.28;97.94
65557;BME280;52200;53.490;14.376;2022-11-15T09:04:46;101353.47;;;6.10;97.61
65557;BME280;52200;53.490;14.376;2022-11-15T09:07:13;101356.75;;;5.85;98.71
65557;BME280;52200;53.490;14.376;2022-11-15T09:09:39;101353.41;;;5.90;98.71
65557;BME280;52200;53.490;14.376;2022-11-15T09:12:06;101359.22;;;5.71;99.63
65557;BME280;52200;53.490;14.376;2022-11-15T09:14:32;101369.31;;;5.72;99.74
65557;BME280;52200;53.490;14.376;2022-11-15T09:16:58;101365.09;;;5.68;100.00
65557;BME280;52200;53.490;14.376;2022-11-15T09:19:24;101370.19;;;5.85;99.59
65557;BME280;52200;53.490;14.376;2022-11-15T09:21:50;101362.72;;;5.99;99.78
65557;BME280;52200;53.490;14.376;2022-11-15T09:24:15;101357.69;;;6.13;98.45
65557;BME280;52200;53.490;14.376;2022-11-15T09:26:41;101352.69;;;6.38;96.93
65557;BME280;52200;53.490;14.376;2022-11-15T09:29:06;101352.69;;;6.58;97.12
65557;BME280;52200;53.490;14.376;2022-11-15T09:31:32;101354.34;;;6.85;96.05
65557;BME280;52200;53.490;14.376;2022-11-15T09:33:58;101357.69;;;6.95;94.98
65557;BME280;52200;53.490;14.376;2022-11-15T09:36:24;101358.56;;;6.91;95.04
65557;BME280;52200;53.490;14.376;2022-11-15T09:38:49;101358.56;;;6.72;95.06
65557;BME280;52200;53.490;14.376;2022-11-15T09:43:44;101353.50;;;6.69;95.65
65557;BME280;52200;53.490;14.376;2022-11-15T09:48:55;101365.25;;;7.18;92.38
65557;BME280;52200;53.490;14.376;2022-11-15T09:51:31;101362.59;;;7.52;91.81
65557;BME280;52200;53.490;14.376;2022-11-15T09:54:11;101367.72;;;7.38;91.49
65557;BME280;52200;53.490;14.376;2022-11-15T09:56:41;101368.56;;;7.34;91.28
65557;BME280;52200;53.490;14.376;2022-11-15T10:04:29;101367.00;;;6.81;92.75
65557;BME280;52200;53.490;14.376;2022-11-15T10:07:04;101357.72;;;6.56;93.75
65557;BME280;52200;53.490;14.376;2022-11-15T10:09:42;101361.94;;;6.64;94.56
65557;BME280;52200;53.490;14.376;2022-11-15T10:12:11;101353.53;;;6.78;94.54
65557;BME280;52200;53.490;14.376;2022-11-15T10:14:38;101352.66;;;6.76;94.21
65557;BME280;52200;53.490;14.376;2022-11-15T10:20:02;101360.22;;;7.01;93.37
65557;BME280;52200;53.490;14.376;2022-11-15T10:22:35;101350.06;;;7.15;92.71
65557;BME280;52200;53.490;14.376;2022-11-15T10:27:29;101340.91;;;6.83;94.30
65557;BME280;52200;53.490;14.376;2022-11-15T10:29:54;101344.25;;;6.67;95.65
65557;BME280;52200;53.490;14.376;2022-11-15T10:32:21;101334.13;;;6.99;94.52
65557;BME280;52200;53.490;14.376;2022-11-15T10:34:48;101323.13;;;7.22;92.41
65557;BME280;52200;53.490;14.376;2022-11-15T10:37:14;101321.41;;;7.33;93.32
65557;BME280;52200;53.490;14.376;2022-11-15T10:39:39;101321.25;;;7.64;92.00
65557;BME280;52200;53.490;14.376;2022-11-15T10:42:17;101315.25;;;7.81;91.51
65557;BME280;52200;53.490;14.376;2022-11-15T10:44:44;101313.63;;;7.77;90.02
65557;BME280;52200;53.490;14.376;2022-11-15T10:47:25;101310.31;;;7.65;90.18
65557;BME280;52200;53.490;14.376;2022-11-15T10:49:59;101313.00;;;7.22;91.95
65557;BME280;52200;53.490;14.376;2022-11-15T10:52:26;101311.34;;;7.18;92.14
65557;BME280;52200;53.490;14.376;2022-11-15T10:54:56;101316.38;;;7.24;91.30
65557;BME280;52200;53.490;14.376;2022-11-15T10:57:31;101311.38;;;7.12;92.56
65557;BME280;52200;53.490;14.376;2022-11-15T11:00:06;101315.56;;;7.20;91.67
65557;BME280;52200;53.490;14.376;2022-11-15T11:05:38;101304.41;;;7.66;89.52
65557;BME280;52200;53.490;14.376;2022-11-15T11:08:19;101299.34;;;7.66;90.15
65557;BME280;52200;53.490;14.376;2022-11-15T11:10:54;101298.38;;;7.92;89.84
65557;BME280;52200;53.490;14.376;2022-11-15T11:13:27;101297.72;;;7.50;90.99
65557;BME280;52200;53.490;14.376;2022-11-15T11:16:14;101300.22;;;7.59;91.18
65557;BME280;52200;53.490;14.376;2022-11-15T11:32:56;101270.75;;;7.52;90.83
65557;BME280;52200;53.490;14.376;2022-11-15T11:36:03;101270.78;;;7.46;90.69
65557;BME280;52200;53.490;14.376;2022-11-15T11:41:43;101279.69;;;8.07;89.02
65557;BME280;52200;53.490;14.376;2022-11-15T11:44:32;101281.22;;;8.28;88.30
65557;BME280;52200;53.490;14.376;2022-11-15T11:47:03;101281.97;;;8.36;88.26
65557;BME280;52200;53.490;14.376;2022-11-15T11:49:45;101276.97;;;8.32;87.63
65557;BME280;52200;53.490;14.376;2022-11-15T11:55:12;101278.44;;;8.59;86.68
65557;BME280;52200;53.490;14.376;2022-11-15T12:00:23;101283.34;;;8.75;85.96
65557;BME280;52200;53.490;14.376;2022-11-15T12:08:41;101268.94;;;8.80;85.47
65557;BME280;52200;53.490;14.376;2022-11-15T12:13:42;101261.19;;;8.95;86.01
65557;BME280;52200;53.490;14.376;2022-11-15T12:18:49;101260.84;;;9.23;84.14
65557;BME280;52200;53.490;14.376;2022-11-15T12:24:14;101260.50;;;8.81;85.36
65557;BME280;52200;53.490;14.376;2022-11-15T12:27:11;101256.38;;;8.70;86.54
65557;BME280;52200;53.490;14.376;2022-11-15T12:29:43;101265.38;;;8.98;86.14
65557;BME280;52200;53.490;14.376;2022-11-15T12:34:48;101251.72;;;9.08;85.37
65557;BME280;52200;53.490;14.376;2022-11-15T12:43:04;101250.19;;;8.98;86.19
65557;BME280;52200;53.490;14.376;2022-11-15T12:45:36;101248.66;;;8.83;86.18
65557;BME280;52200;53.490;14.376;2022-11-15T12:50:55;101248.28;;;9.14;86.26
65557;BME280;52200;53.490;14.376;2022-11-15T12:56:18;101259.13;;;9.25;85.16
65557;BME280;52200;53.490;14.376;2022-11-15T12:58:56;101251.66;;;9.16;85.54
65557;BME280;52200;53.490;14.376;2022-11-15T13:07:02;101235.03;;;8.93;86.24
65557;BME280;52200;53.490;14.376;2022-11-15T13:14:39;101225.28;;;8.56;87.47
65557;BME280;52200;53.490;14.376;2022-11-15T13:19:57;101219.28;;;8.66;87.79
65557;BME280;52200;53.490;14.376;2022-11-15T13:22:24;101221.94;;;8.54;88.02
65557;BME280;52200;53.490;14.376;2022-11-15T13:25:19;101223.75;;;8.39;88.73
65557;BME280;52200;53.490;14.376;2022-11-15T13:27:48;101224.63;;;8.35;89.13
65557;BME280;52200;53.490;14.376;2022-11-15T13:30:26;101217.81;;;8.42;88.79
65557;BME280;52200;53.490;14.376;2022-11-15T13:32:52;101222.91;;;8.37;88.63
65557;BME280;52200;53.490;14.376;2022-11-15T13:35:29;101223.84;;;8.29;89.63
65557;BME280;52200;53.490;14.376;2022-11-15T13:38:03;101219.59;;;8.31;89.24
65557;BME280;52200;53.490;14.376;2022-11-15T13:40:35;101229.00;;;8.19;88.65
65557;BME280;52200;53.490;14.376;2022-11-15T13:43:26;101223.28;;;7.94;89.91
65557;BME280;52200;53.490;14.376;2022-11-15T13:46:27;101210.59;;;8.02;89.62
65557;BME280;52200;53.490;14.376;2022-11-15T13:49:04;101204.94;;;7.64;90.37
65557;BME280;52200;53.490;14.376;2022-11-15T13:51:37;101207.53;;;7.53;91.76
65557;BME280;52200;53.490;14.376;2022-11-15T13:56:55;101210.31;;;7.12;92.99
65557;BME280;52200;53.490;14.376;2022-11-15T13:59:31;101211.94;;;7.26;92.96
65557;BME280;52200;53.490;14.376;2022-11-15T14:02:12;101208.56;;;7.20;92.74
65557;BME280;52200;53.490;14.376;2022-11-15T14:04:46;101215.38;;;7.08;92.22
65557;BME280;52200;53.490;14.376;2022-11-15T14:07:18;101208.66;;;6.97;93.40
65557;BME280;52200;53.490;14.376;2022-11-15T14:09:45;101218.81;;;6.92;94.01
65557;BME280;52200;53.490;14.376;2022-11-15T14:14:46;101225.50;;;6.96;94.24
65557;BME280;52200;53.490;14.376;2022-11-15T14:17:34;101229.75;;;6.91;94.29
65557;BME280;52200;53.490;14.376;2022-11-15T14:20:00;101229.69;;;7.08;93.57
65557;BME280;52200;53.490;14.376;2022-11-15T14:22:30;101234.69;;;7.13;93.96
65557;BME280;52200;53.490;14.376;2022-11-15T14:25:17;101233.13;;;6.88;94.36
65557;BME280;52200;53.490;14.376;2022-11-15T14:30:29;101225.59;;;6.81;94.01
65557;BME280;52200;53.490;14.376;2022-11-15T14:32:54;101218.91;;;6.39;96.21
65557;BME280;52200;53.490;14.376;2022-11-15T14:35:21;101222.28;;;6.38;95.89
65557;BME280;52200;53.490;14.376;2022-11-15T14:37:47;101221.44;;;6.28;97.84
65557;BME280;52200;53.490;14.376;2022-11-15T14:40:20;101226.47;;;6.55;97.21
65557;BME280;52200;53.490;14.376;2022-11-15T14:42:48;101221.41;;;6.67;95.88
65557;BME280;52200;53.490;14.376;2022-11-15T14:45:16;101213.78;;;6.72;96.58
65557;BME280;52200;53.490;14.376;2022-11-15T14:47:42;101204.59;;;6.49;97.04
65557;BME280;52200;53.490;14.376;2022-11-15T14:50:16;101197.00;;;6.63;96.22
65557;BME280;52200;53.490;14.376;2022-11-15T14:52:42;101196.09;;;6.83;96.54
65557;BME280;52200;53.490;14.376;2022-11-15T14:55:18;101202.00;;;6.85;95.72